sensor_id;sensor_type;location;lat;lon;timestamp;P1;durP1;ratioP1;P2;durP2;ratioP2
17604;SDS011;8921;50.964;6.800;2024-01-06T00:00:39;10.30;;;6.80;;
17604;SDS011;8921;50.964;6.800;2024-01-06T00:03:07;10.53;;;6.50;;
17604;SDS011;8921;50.964;6.800;2024-01-06T00:05:36;9.00;;;7.00;;
17604;SDS011;8921;50.964;6.800;2024-01-06T00:08:04;9.97;;;6.87;;
17604;SDS011;8921;50.964;6.800;2024-01-06T00:10:32;10.20;;;6.97;;
17604;SDS011;8921;50.964;6.800;2024-01-06T00:13:01;10.13;;;7.50;;
17604;SDS011;8921;50.964;6.800;2024-01-06T00:15:29;9.23;;;7.07;;
17604;SDS011;8921;50.964;6.800;2024-01-06T00:17:57;10.30;;;6.50;;
17604;SDS011;8921;50.964;6.800;2024-01-06T00:20:26;11.73;;;6.17;;
17604;SDS011;8921;50.964;6.800;2024-01-06T00:22:54;11.27;;;7.27;;
17604;SDS011;8921;50.964;6.800;2024-01-06T00:25:22;10.03;;;7.07;;
17604;SDS011;8921;50.964;6.800;2024-01-06T00:27:51;10.70;;;7.70;;
17604;SDS011;8921;50.964;6.800;2024-01-06T00:30:19;10.50;;;7.63;;
17604;SDS011;8921;50.964;6.800;2024-01-06T00:32:47;11.20;;;7.00;;
17604;SDS011;8921;50.964;6.800;2024-01-06T00:35:15;12.87;;;7.07;;
17604;SDS011;8921;50.964;6.800;2024-01-06T00:37:44;10.40;;;8.03;;
17604;SDS011;8921;50.964;6.800;2024-01-06T00:40:12;10.43;;;7.37;;
17604;SDS011;8921;50.964;6.800;2024-01-06T00:42:40;12.10;;;7.40;;
17604;SDS011;8921;50.964;6.800;2024-01-06T00:45:09;12.07;;;8.70;;
17604;SDS011;8921;50.964;6.800;2024-01-06T00:47:37;12.97;;;8.13;;
17604;SDS011;8921;50.964;6.800;2024-01-06T00:50:06;11.00;;;7.13;;
17604;SDS011;8921;50.964;6.800;2024-01-06T00:52:34;14.20;;;8.00;;
17604;SDS011;8921;50.964;6.800;2024-01-06T00:55:02;11.10;;;7.63;;
17604;SDS011;8921;50.964;6.800;2024-01-06T00:57:31;14.73;;;9.00;;
17604;SDS011;8921;50.964;6.800;2024-01-06T00:59:59;10.60;;;7.30;;
17604;SDS011;8921;50.964;6.800;2024-01-06T01:02:27;13.93;;;8.87;;
17604;SDS011;8921;50.964;6.800;2024-01-06T01:04:56;16.60;;;8.83;;
17604;SDS011;8921;50.964;6.800;2024-01-06T01:07:24;19.20;;;9.20;;
17604;SDS011;8921;50.964;6.800;2024-01-06T01:09:52;12.43;;;7.90;;
17604;SDS011;8921;50.964;6.800;2024-01-06T01:12:20;13.20;;;7.90;;
17604;SDS011;8921;50.964;6.800;2024-01-06T01:14:49;12.50;;;8.77;;
17604;SDS011;8921;50.964;6.800;2024-01-06T01:17:17;12.30;;;8.10;;
17604;SDS011;8921;50.964;6.800;2024-01-06T01:19:46;14.53;;;8.67;;
17604;SDS011;8921;50.964;6.800;2024-01-06T01:22:14;11.57;;;7.20;;
17604;SDS011;8921;50.964;6.800;2024-01-06T01:24:42;13.97;;;9.77;;
17604;SDS011;8921;50.964;6.800;2024-01-06T01:27:10;16.63;;;9.80;;
17604;SDS011;8921;50.964;6.800;2024-01-06T01:29:39;14.80;;;9.93;;
17604;SDS011;8921;50.964;6.800;2024-01-06T01:32:07;14.80;;;9.83;;
17604;SDS011;8921;50.964;6.800;2024-01-06T01:34:35;15.50;;;10.73;;
17604;SDS011;8921;50.964;6.800;2024-01-06T01:37:03;14.00;;;9.83;;
17604;SDS011;8921;50.964;6.800;2024-01-06T01:39:32;17.83;;;10.27;;
17604;SDS011;8921;50.964;6.800;2024-01-06T01:42:00;13.60;;;10.07;;
17604;SDS011;8921;50.964;6.800;2024-01-06T01:44:28;14.83;;;10.17;;
17604;SDS011;8921;50.964;6.800;2024-01-06T01:46:57;15.90;;;11.60;;
17604;SDS011;8921;50.964;6.800;2024-01-06T01:49:25;13.33;;;10.23;;
17604;SDS011;8921;50.964;6.800;2024-01-06T01:51:53;12.83;;;10.07;;
17604;SDS011;8921;50.964;6.800;2024-01-06T01:54:22;18.30;;;9.73;;
17604;SDS011;8921;50.964;6.800;2024-01-06T01:56:50;16.07;;;11.70;;
17604;SDS011;8921;50.964;6.800;2024-01-06T01:59:18;16.57;;;10.97;;
17604;SDS011;8921;50.964;6.800;2024-01-06T02:01:46;15.50;;;10.13;;
17604;SDS011;8921;50.964;6.800;2024-01-06T02:04:15;18.73;;;11.67;;
17604;SDS011;8921;50.964;6.800;2024-01-06T02:06:43;14.73;;;10.10;;
17604;SDS011;8921;50.964;6.800;2024-01-06T02:09:11;14.93;;;10.70;;
17604;SDS011;8921;50.964;6.800;2024-01-06T02:11:40;15.97;;;10.00;;
17604;SDS011;8921;50.964;6.800;2024-01-06T02:14:08;13.40;;;10.20;;
17604;SDS011;8921;50.964;6.800;2024-01-06T02:16:36;17.40;;;9.70;;
17604;SDS011;8921;50.964;6.800;2024-01-06T02:19:05;17.80;;;11.00;;
17604;SDS011;8921;50.964;6.800;2024-01-06T02:21:33;15.13;;;10.60;;
17604;SDS011;8921;50.964;6.800;2024-01-06T02:24:01;17.03;;;10.50;;
17604;SDS011;8921;50.964;6.800;2024-01-06T02:26:30;14.97;;;9.70;;
17604;SDS011;8921;50.964;6.800;2024-01-06T02:28:58;13.17;;;10.07;;
17604;SDS011;8921;50.964;6.800;2024-01-06T02:31:26;14.40;;;9.60;;
17604;SDS011;8921;50.964;6.800;2024-01-06T02:33:54;17.30;;;10.47;;
17604;SDS011;8921;50.964;6.800;2024-01-06T02:36:23;16.50;;;10.03;;
17604;SDS011;8921;50.964;6.800;2024-01-06T02:38:51;14.97;;;9.90;;
17604;SDS011;8921;50.964;6.800;2024-01-06T02:41:19;14.80;;;9.07;;
17604;SDS011;8921;50.964;6.800;2024-01-06T02:43:48;16.77;;;10.20;;
17604;SDS011;8921;50.964;6.800;2024-01-06T02:46:16;12.90;;;9.57;;
17604;SDS011;8921;50.964;6.800;2024-01-06T02:48:44;15.70;;;10.17;;
17604;SDS011;8921;50.964;6.800;2024-01-06T02:51:12;15.80;;;10.40;;
17604;SDS011;8921;50.964;6.800;2024-01-06T02:53:41;13.37;;;9.67;;
17604;SDS011;8921;50.964;6.800;2024-01-06T02:56:10;17.00;;;11.50;;
17604;SDS011;8921;50.964;6.800;2024-01-06T02:58:38;16.90;;;9.73;;
17604;SDS011;8921;50.964;6.800;2024-01-06T03:01:06;15.00;;;10.00;;
17604;SDS011;8921;50.964;6.800;2024-01-06T03:03:34;17.30;;;11.40;;
17604;SDS011;8921;50.964;6.800;2024-01-06T03:06:02;18.57;;;11.93;;
17604;SDS011;8921;50.964;6.800;2024-01-06T03:08:31;23.70;;;13.73;;
17604;SDS011;8921;50.964;6.800;2024-01-06T03:10:59;22.37;;;13.53;;
17604;SDS011;8921;50.964;6.800;2024-01-06T03:13:27;21.97;;;13.30;;
17604;SDS011;8921;50.964;6.800;2024-01-06T03:15:56;23.40;;;14.10;;
17604;SDS011;8921;50.964;6.800;2024-01-06T03:18:24;28.23;;;16.23;;
17604;SDS011;8921;50.964;6.800;2024-01-06T03:20:52;28.63;;;16.93;;
17604;SDS011;8921;50.964;6.800;2024-01-06T03:23:20;31.07;;;17.13;;
17604;SDS011;8921;50.964;6.800;2024-01-06T03:25:49;29.03;;;17.40;;
17604;SDS011;8921;50.964;6.800;2024-01-06T03:28:17;32.80;;;18.57;;
17604;SDS011;8921;50.964;6.800;2024-01-06T03:30:45;31.73;;;18.90;;
17604;SDS011;8921;50.964;6.800;2024-01-06T03:33:14;28.83;;;17.63;;
17604;SDS011;8921;50.964;6.800;2024-01-06T03:35:42;32.50;;;18.50;;
17604;SDS011;8921;50.964;6.800;2024-01-06T03:38:10;30.07;;;18.10;;
17604;SDS011;8921;50.964;6.800;2024-01-06T03:40:39;31.97;;;19.13;;
17604;SDS011;8921;50.964;6.800;2024-01-06T03:43:07;34.90;;;18.37;;
17604;SDS011;8921;50.964;6.800;2024-01-06T03:45:35;30.40;;;18.27;;
17604;SDS011;8921;50.964;6.800;2024-01-06T03:48:04;27.43;;;18.27;;
17604;SDS011;8921;50.964;6.800;2024-01-06T03:50:32;36.80;;;20.50;;
17604;SDS011;8921;50.964;6.800;2024-01-06T03:53:00;31.53;;;19.07;;
17604;SDS011;8921;50.964;6.800;2024-01-06T03:55:29;31.60;;;20.30;;
17604;SDS011;8921;50.964;6.800;2024-01-06T03:57:57;28.60;;;18.00;;
17604;SDS011;8921;50.964;6.800;2024-01-06T04:00:25;32.50;;;19.80;;
17604;SDS011;8921;50.964;6.800;2024-01-06T04:02:53;35.83;;;21.27;;
17604;SDS011;8921;50.964;6.800;2024-01-06T04:05:22;35.70;;;20.27;;
17604;SDS011;8921;50.964;6.800;2024-01-06T04:07:50;35.33;;;20.90;;
17604;SDS011;8921;50.964;6.800;2024-01-06T04:10:18;41.07;;;23.70;;
17604;SDS011;8921;50.964;6.800;2024-01-06T04:12:47;35.43;;;21.60;;
17604;SDS011;8921;50.964;6.800;2024-01-06T04:15:15;43.20;;;24.00;;
17604;SDS011;8921;50.964;6.800;2024-01-06T04:17:44;39.30;;;23.50;;
17604;SDS011;8921;50.964;6.800;2024-01-06T04:20:12;33.77;;;21.20;;
17604;SDS011;8921;50.964;6.800;2024-01-06T04:22:40;39.67;;;22.30;;
17604;SDS011;8921;50.964;6.800;2024-01-06T04:25:08;39.23;;;22.60;;
17604;SDS011;8921;50.964;6.800;2024-01-06T04:27:36;57.03;;;31.43;;
17604;SDS011;8921;50.964;6.800;2024-01-06T04:30:05;43.30;;;24.00;;
17604;SDS011;8921;50.964;6.800;2024-01-06T04:32:33;40.40;;;22.90;;
17604;SDS011;8921;50.964;6.800;2024-01-06T04:35:02;41.93;;;24.03;;
17604;SDS011;8921;50.964;6.800;2024-01-06T04:37:30;41.43;;;20.97;;
17604;SDS011;8921;50.964;6.800;2024-01-06T04:39:58;43.23;;;24.40;;
17604;SDS011;8921;50.964;6.800;2024-01-06T04:42:27;40.50;;;23.90;;
17604;SDS011;8921;50.964;6.800;2024-01-06T04:44:55;38.07;;;22.80;;
17604;SDS011;8921;50.964;6.800;2024-01-06T04:47:23;35.50;;;20.63;;
17604;SDS011;8921;50.964;6.800;2024-01-06T04:49:51;40.47;;;22.83;;
17604;SDS011;8921;50.964;6.800;2024-01-06T04:52:20;38.57;;;23.50;;
17604;SDS011;8921;50.964;6.800;2024-01-06T04:54:48;36.97;;;22.83;;
17604;SDS011;8921;50.964;6.800;2024-01-06T04:57:17;43.30;;;23.30;;
17604;SDS011;8921;50.964;6.800;2024-01-06T04:59:45;36.27;;;22.97;;
17604;SDS011;8921;50.964;6.800;2024-01-06T05:02:13;28.77;;;19.13;;
17604;SDS011;8921;50.964;6.800;2024-01-06T05:04:42;21.80;;;11.67;;
17604;SDS011;8921;50.964;6.800;2024-01-06T05:07:10;16.73;;;9.30;;
17604;SDS011;8921;50.964;6.800;2024-01-06T05:09:38;14.00;;;8.43;;
17604;SDS011;8921;50.964;6.800;2024-01-06T05:12:07;15.03;;;9.30;;
17604;SDS011;8921;50.964;6.800;2024-01-06T05:14:35;18.80;;;9.57;;
17604;SDS011;8921;50.964;6.800;2024-01-06T05:17:03;20.03;;;10.03;;
17604;SDS011;8921;50.964;6.800;2024-01-06T05:19:32;21.43;;;10.10;;
17604;SDS011;8921;50.964;6.800;2024-01-06T05:22:00;18.90;;;10.03;;
17604;SDS011;8921;50.964;6.800;2024-01-06T05:24:28;17.80;;;9.83;;
17604;SDS011;8921;50.964;6.800;2024-01-06T05:26:57;19.27;;;11.00;;
17604;SDS011;8921;50.964;6.800;2024-01-06T05:29:25;18.60;;;10.60;;
17604;SDS011;8921;50.964;6.800;2024-01-06T05:31:53;19.73;;;11.40;;
17604;SDS011;8921;50.964;6.800;2024-01-06T05:34:21;17.63;;;10.00;;
17604;SDS011;8921;50.964;6.800;2024-01-06T05:36:50;19.00;;;10.03;;
17604;SDS011;8921;50.964;6.800;2024-01-06T05:39:18;21.83;;;10.03;;
17604;SDS011;8921;50.964;6.800;2024-01-06T05:41:46;16.10;;;8.67;;
17604;SDS011;8921;50.964;6.800;2024-01-06T05:44:15;17.03;;;8.40;;
17604;SDS011;8921;50.964;6.800;2024-01-06T05:46:43;15.73;;;9.17;;
17604;SDS011;8921;50.964;6.800;2024-01-06T05:49:11;17.40;;;9.20;;
17604;SDS011;8921;50.964;6.800;2024-01-06T05:51:44;17.70;;;9.33;;
17604;SDS011;8921;50.964;6.800;2024-01-06T05:54:08;15.60;;;8.90;;
17604;SDS011;8921;50.964;6.800;2024-01-06T05:56:36;17.13;;;9.77;;
17604;SDS011;8921;50.964;6.800;2024-01-06T05:59:04;20.30;;;10.50;;
17604;SDS011;8921;50.964;6.800;2024-01-06T06:01:33;17.30;;;9.07;;
17604;SDS011;8921;50.964;6.800;2024-01-06T06:04:01;18.27;;;9.23;;
17604;SDS011;8921;50.964;6.800;2024-01-06T06:06:30;17.10;;;9.70;;
17604;SDS011;8921;50.964;6.800;2024-01-06T06:08:58;16.93;;;9.80;;
17604;SDS011;8921;50.964;6.800;2024-01-06T06:11:26;21.40;;;9.97;;
17604;SDS011;8921;50.964;6.800;2024-01-06T06:13:54;19.03;;;10.20;;
17604;SDS011;8921;50.964;6.800;2024-01-06T06:16:23;17.60;;;9.27;;
17604;SDS011;8921;50.964;6.800;2024-01-06T06:18:51;19.60;;;11.33;;
17604;SDS011;8921;50.964;6.800;2024-01-06T06:21:19;16.00;;;9.40;;
17604;SDS011;8921;50.964;6.800;2024-01-06T06:23:48;21.60;;;10.47;;
17604;SDS011;8921;50.964;6.800;2024-01-06T06:26:16;17.93;;;9.73;;
17604;SDS011;8921;50.964;6.800;2024-01-06T06:28:44;18.50;;;11.60;;
17604;SDS011;8921;50.964;6.800;2024-01-06T06:31:12;18.93;;;10.30;;
17604;SDS011;8921;50.964;6.800;2024-01-06T06:33:41;18.13;;;8.30;;
17604;SDS011;8921;50.964;6.800;2024-01-06T06:36:09;18.80;;;9.90;;
17604;SDS011;8921;50.964;6.800;2024-01-06T06:38:37;20.87;;;10.30;;
17604;SDS011;8921;50.964;6.800;2024-01-06T06:41:06;21.33;;;12.20;;
17604;SDS011;8921;50.964;6.800;2024-01-06T06:43:34;20.53;;;12.33;;
17604;SDS011;8921;50.964;6.800;2024-01-06T06:46:02;21.50;;;12.83;;
17604;SDS011;8921;50.964;6.800;2024-01-06T06:48:31;19.00;;;10.57;;
17604;SDS011;8921;50.964;6.800;2024-01-06T06:50:59;22.97;;;11.67;;
17604;SDS011;8921;50.964;6.800;2024-01-06T06:53:27;22.20;;;13.30;;
17604;SDS011;8921;50.964;6.800;2024-01-06T06:55:55;19.63;;;11.50;;
17604;SDS011;8921;50.964;6.800;2024-01-06T06:58:24;20.23;;;11.30;;
17604;SDS011;8921;50.964;6.800;2024-01-06T07:00:52;18.00;;;10.20;;
17604;SDS011;8921;50.964;6.800;2024-01-06T07:03:20;20.20;;;11.37;;
17604;SDS011;8921;50.964;6.800;2024-01-06T07:05:49;22.63;;;11.50;;
17604;SDS011;8921;50.964;6.800;2024-01-06T07:08:17;19.20;;;9.97;;
17604;SDS011;8921;50.964;6.800;2024-01-06T07:10:45;18.50;;;10.67;;
17604;SDS011;8921;50.964;6.800;2024-01-06T07:13:13;19.83;;;10.80;;
17604;SDS011;8921;50.964;6.800;2024-01-06T07:15:42;19.70;;;11.00;;
17604;SDS011;8921;50.964;6.800;2024-01-06T07:18:10;19.60;;;11.00;;
17604;SDS011;8921;50.964;6.800;2024-01-06T07:20:38;25.23;;;10.60;;
17604;SDS011;8921;50.964;6.800;2024-01-06T07:23:07;20.73;;;12.73;;
17604;SDS011;8921;50.964;6.800;2024-01-06T07:25:35;21.20;;;11.67;;
17604;SDS011;8921;50.964;6.800;2024-01-06T07:28:03;24.90;;;11.50;;
17604;SDS011;8921;50.964;6.800;2024-01-06T07:30:31;18.83;;;10.33;;
17604;SDS011;8921;50.964;6.800;2024-01-06T07:33:00;20.47;;;11.37;;
17604;SDS011;8921;50.964;6.800;2024-01-06T07:35:28;19.80;;;10.67;;
17604;SDS011;8921;50.964;6.800;2024-01-06T07:37:56;22.80;;;12.20;;
17604;SDS011;8921;50.964;6.800;2024-01-06T07:40:25;20.23;;;11.07;;
17604;SDS011;8921;50.964;6.800;2024-01-06T07:42:53;19.87;;;12.43;;
17604;SDS011;8921;50.964;6.800;2024-01-06T07:45:21;22.93;;;12.87;;
17604;SDS011;8921;50.964;6.800;2024-01-06T07:47:49;22.90;;;13.17;;
17604;SDS011;8921;50.964;6.800;2024-01-06T07:50:18;22.83;;;12.03;;
17604;SDS011;8921;50.964;6.800;2024-01-06T07:52:46;22.43;;;12.50;;
17604;SDS011;8921;50.964;6.800;2024-01-06T07:55:14;21.70;;;12.33;;
17604;SDS011;8921;50.964;6.800;2024-01-06T07:57:43;24.27;;;13.33;;
17604;SDS011;8921;50.964;6.800;2024-01-06T08:00:11;21.17;;;11.03;;
17604;SDS011;8921;50.964;6.800;2024-01-06T08:02:42;20.27;;;11.10;;
17604;SDS011;8921;50.964;6.800;2024-01-06T08:05:10;18.90;;;10.90;;
17604;SDS011;8921;50.964;6.800;2024-01-06T08:07:39;19.50;;;10.10;;
17604;SDS011;8921;50.964;6.800;2024-01-06T08:10:07;20.93;;;12.47;;
17604;SDS011;8921;50.964;6.800;2024-01-06T08:12:36;21.97;;;11.90;;
17604;SDS011;8921;50.964;6.800;2024-01-06T08:15:04;21.53;;;11.23;;
17604;SDS011;8921;50.964;6.800;2024-01-06T08:17:32;21.80;;;12.00;;
17604;SDS011;8921;50.964;6.800;2024-01-06T08:20:01;17.73;;;10.30;;
17604;SDS011;8921;50.964;6.800;2024-01-06T08:22:29;18.07;;;10.00;;
17604;SDS011;8921;50.964;6.800;2024-01-06T08:24:57;23.63;;;11.97;;
17604;SDS011;8921;50.964;6.800;2024-01-06T08:27:26;21.83;;;10.83;;
17604;SDS011;8921;50.964;6.800;2024-01-06T08:29:54;20.77;;;12.03;;
17604;SDS011;8921;50.964;6.800;2024-01-06T08:32:22;21.93;;;11.33;;
17604;SDS011;8921;50.964;6.800;2024-01-06T08:34:50;22.00;;;12.10;;
17604;SDS011;8921;50.964;6.800;2024-01-06T08:37:19;21.37;;;11.57;;
17604;SDS011;8921;50.964;6.800;2024-01-06T08:39:47;24.00;;;12.03;;
17604;SDS011;8921;50.964;6.800;2024-01-06T08:42:15;22.00;;;12.13;;
17604;SDS011;8921;50.964;6.800;2024-01-06T08:44:43;21.53;;;11.70;;
17604;SDS011;8921;50.964;6.800;2024-01-06T08:47:12;20.70;;;11.43;;
17604;SDS011;8921;50.964;6.800;2024-01-06T08:49:40;22.73;;;12.20;;
17604;SDS011;8921;50.964;6.800;2024-01-06T08:52:08;20.50;;;11.13;;
17604;SDS011;8921;50.964;6.800;2024-01-06T08:54:37;22.17;;;12.10;;
17604;SDS011;8921;50.964;6.800;2024-01-06T08:57:05;23.57;;;14.00;;
17604;SDS011;8921;50.964;6.800;2024-01-06T08:59:33;22.23;;;11.60;;
17604;SDS011;8921;50.964;6.800;2024-01-06T09:02:01;22.10;;;11.40;;
17604;SDS011;8921;50.964;6.800;2024-01-06T09:04:30;19.23;;;10.50;;
17604;SDS011;8921;50.964;6.800;2024-01-06T09:06:58;24.80;;;13.00;;
17604;SDS011;8921;50.964;6.800;2024-01-06T09:09:26;23.97;;;12.67;;
17604;SDS011;8921;50.964;6.800;2024-01-06T09:11:54;21.17;;;12.50;;
17604;SDS011;8921;50.964;6.800;2024-01-06T09:14:23;21.03;;;11.83;;
17604;SDS011;8921;50.964;6.800;2024-01-06T09:16:51;19.63;;;11.63;;
17604;SDS011;8921;50.964;6.800;2024-01-06T09:19:19;35.23;;;20.07;;
17604;SDS011;8921;50.964;6.800;2024-01-06T09:21:48;20.47;;;12.10;;
17604;SDS011;8921;50.964;6.800;2024-01-06T09:24:16;19.50;;;10.10;;
17604;SDS011;8921;50.964;6.800;2024-01-06T09:26:44;21.67;;;10.13;;
17604;SDS011;8921;50.964;6.800;2024-01-06T09:29:12;20.93;;;11.80;;
17604;SDS011;8921;50.964;6.800;2024-01-06T09:31:41;19.00;;;10.60;;
17604;SDS011;8921;50.964;6.800;2024-01-06T09:34:09;31.87;;;10.30;;
17604;SDS011;8921;50.964;6.800;2024-01-06T09:36:37;20.20;;;10.13;;
17604;SDS011;8921;50.964;6.800;2024-01-06T09:39:06;18.60;;;9.57;;
17604;SDS011;8921;50.964;6.800;2024-01-06T09:41:34;19.53;;;10.07;;
17604;SDS011;8921;50.964;6.800;2024-01-06T09:44:02;18.77;;;10.90;;
17604;SDS011;8921;50.964;6.800;2024-01-06T09:46:30;17.40;;;9.10;;
17604;SDS011;8921;50.964;6.800;2024-01-06T09:48:59;18.00;;;9.60;;
17604;SDS011;8921;50.964;6.800;2024-01-06T09:51:27;17.77;;;9.87;;
17604;SDS011;8921;50.964;6.800;2024-01-06T09:53:57;17.80;;;9.93;;
17604;SDS011;8921;50.964;6.800;2024-01-06T09:56:27;19.90;;;10.50;;
17604;SDS011;8921;50.964;6.800;2024-01-06T09:58:57;21.60;;;10.20;;
17604;SDS011;8921;50.964;6.800;2024-01-06T10:01:23;21.43;;;10.50;;
17604;SDS011;8921;50.964;6.800;2024-01-06T10:03:51;17.00;;;9.80;;
17604;SDS011;8921;50.964;6.800;2024-01-06T10:06:19;18.77;;;10.20;;
17604;SDS011;8921;50.964;6.800;2024-01-06T10:08:48;17.00;;;10.10;;
17604;SDS011;8921;50.964;6.800;2024-01-06T10:11:16;18.40;;;10.27;;
17604;SDS011;8921;50.964;6.800;2024-01-06T10:13:44;19.93;;;9.47;;
17604;SDS011;8921;50.964;6.800;2024-01-06T10:16:12;19.30;;;11.07;;
17604;SDS011;8921;50.964;6.800;2024-01-06T10:18:40;19.70;;;10.20;;
17604;SDS011;8921;50.964;6.800;2024-01-06T10:21:09;17.27;;;9.33;;
17604;SDS011;8921;50.964;6.800;2024-01-06T10:23:37;15.37;;;8.80;;
17604;SDS011;8921;50.964;6.800;2024-01-06T10:26:05;19.20;;;9.13;;
17604;SDS011;8921;50.964;6.800;2024-01-06T10:28:34;17.50;;;10.10;;
17604;SDS011;8921;50.964;6.800;2024-01-06T10:31:02;15.57;;;8.67;;
17604;SDS011;8921;50.964;6.800;2024-01-06T10:33:30;16.10;;;8.77;;
17604;SDS011;8921;50.964;6.800;2024-01-06T10:35:59;19.50;;;9.80;;
17604;SDS011;8921;50.964;6.800;2024-01-06T10:38:27;17.97;;;9.17;;
17604;SDS011;8921;50.964;6.800;2024-01-06T10:40:56;16.80;;;9.40;;
17604;SDS011;8921;50.964;6.800;2024-01-06T10:43:25;19.67;;;8.77;;
17604;SDS011;8921;50.964;6.800;2024-01-06T10:45:58;24.90;;;12.80;;
17604;SDS011;8921;50.964;6.800;2024-01-06T10:48:26;20.37;;;11.00;;
17604;SDS011;8921;50.964;6.800;2024-01-06T10:50:54;15.40;;;8.90;;
17604;SDS011;8921;50.964;6.800;2024-01-06T10:53:23;19.33;;;9.80;;
17604;SDS011;8921;50.964;6.800;2024-01-06T10:55:51;16.87;;;9.17;;
17604;SDS011;8921;50.964;6.800;2024-01-06T10:58:19;15.90;;;8.67;;
17604;SDS011;8921;50.964;6.800;2024-01-06T11:00:47;16.70;;;9.37;;
17604;SDS011;8921;50.964;6.800;2024-01-06T11:03:16;17.37;;;10.07;;
17604;SDS011;8921;50.964;6.800;2024-01-06T11:05:44;18.07;;;9.70;;
17604;SDS011;8921;50.964;6.800;2024-01-06T11:08:12;17.87;;;9.90;;
17604;SDS011;8921;50.964;6.800;2024-01-06T11:10:40;27.20;;;14.30;;
17604;SDS011;8921;50.964;6.800;2024-01-06T11:13:09;19.60;;;11.27;;
17604;SDS011;8921;50.964;6.800;2024-01-06T11:18:32;15.90;;;10.00;;
17604;SDS011;8921;50.964;6.800;2024-01-06T11:23:41;18.57;;;10.70;;
17604;SDS011;8921;50.964;6.800;2024-01-06T11:26:10;18.07;;;10.30;;
17604;SDS011;8921;50.964;6.800;2024-01-06T11:28:44;19.10;;;10.50;;
17604;SDS011;8921;50.964;6.800;2024-01-06T11:31:12;16.13;;;8.93;;
17604;SDS011;8921;50.964;6.800;2024-01-06T11:33:43;15.63;;;10.03;;
17604;SDS011;8921;50.964;6.800;2024-01-06T11:36:11;16.57;;;9.33;;
17604;SDS011;8921;50.964;6.800;2024-01-06T11:38:39;15.33;;;8.80;;
17604;SDS011;8921;50.964;6.800;2024-01-06T11:41:08;16.00;;;9.20;;
17604;SDS011;8921;50.964;6.800;2024-01-06T11:43:36;18.20;;;9.20;;
17604;SDS011;8921;50.964;6.800;2024-01-06T11:46:07;17.03;;;10.10;;
17604;SDS011;8921;50.964;6.800;2024-01-06T11:48:36;18.90;;;9.13;;
17604;SDS011;8921;50.964;6.800;2024-01-06T11:51:04;18.07;;;9.67;;
17604;SDS011;8921;50.964;6.800;2024-01-06T11:53:32;17.37;;;9.20;;
17604;SDS011;8921;50.964;6.800;2024-01-06T11:56:00;18.77;;;9.60;;
17604;SDS011;8921;50.964;6.800;2024-01-06T11:58:29;14.87;;;8.73;;
17604;SDS011;8921;50.964;6.800;2024-01-06T12:00:57;17.63;;;9.67;;
17604;SDS011;8921;50.964;6.800;2024-01-06T12:03:25;19.60;;;9.53;;
17604;SDS011;8921;50.964;6.800;2024-01-06T12:06:00;23.53;;;10.80;;
17604;SDS011;8921;50.964;6.800;2024-01-06T12:08:28;21.10;;;11.23;;
17604;SDS011;8921;50.964;6.800;2024-01-06T12:11:05;18.40;;;12.03;;
17604;SDS011;8921;50.964;6.800;2024-01-06T12:13:33;21.17;;;10.47;;
17604;SDS011;8921;50.964;6.800;2024-01-06T12:16:01;22.77;;;11.67;;
17604;SDS011;8921;50.964;6.800;2024-01-06T12:18:29;18.20;;;10.20;;
17604;SDS011;8921;50.964;6.800;2024-01-06T12:20:58;19.00;;;10.07;;
17604;SDS011;8921;50.964;6.800;2024-01-06T12:23:27;19.87;;;11.10;;
17604;SDS011;8921;50.964;6.800;2024-01-06T12:25:55;23.70;;;12.10;;
17604;SDS011;8921;50.964;6.800;2024-01-06T12:28:26;20.47;;;11.30;;
17604;SDS011;8921;50.964;6.800;2024-01-06T12:30:54;20.00;;;10.37;;
17604;SDS011;8921;50.964;6.800;2024-01-06T12:33:22;20.47;;;11.23;;
17604;SDS011;8921;50.964;6.800;2024-01-06T12:35:50;25.70;;;13.00;;
17604;SDS011;8921;50.964;6.800;2024-01-06T12:38:19;22.80;;;12.47;;
17604;SDS011;8921;50.964;6.800;2024-01-06T12:40:47;25.10;;;13.67;;
17604;SDS011;8921;50.964;6.800;2024-01-06T12:43:15;24.87;;;12.63;;
17604;SDS011;8921;50.964;6.800;2024-01-06T12:45:43;22.93;;;12.67;;
17604;SDS011;8921;50.964;6.800;2024-01-06T12:48:12;24.13;;;13.47;;
17604;SDS011;8921;50.964;6.800;2024-01-06T12:50:40;32.30;;;13.47;;
17604;SDS011;8921;50.964;6.800;2024-01-06T12:53:08;27.97;;;13.90;;
17604;SDS011;8921;50.964;6.800;2024-01-06T12:55:36;25.70;;;12.97;;
17604;SDS011;8921;50.964;6.800;2024-01-06T12:58:05;21.37;;;11.50;;
17604;SDS011;8921;50.964;6.800;2024-01-06T13:00:33;23.83;;;11.40;;
17604;SDS011;8921;50.964;6.800;2024-01-06T13:03:01;27.67;;;12.63;;
17604;SDS011;8921;50.964;6.800;2024-01-06T13:05:30;30.43;;;15.20;;
17604;SDS011;8921;50.964;6.800;2024-01-06T13:07:58;29.83;;;13.33;;
17604;SDS011;8921;50.964;6.800;2024-01-06T13:10:26;29.63;;;14.53;;
17604;SDS011;8921;50.964;6.800;2024-01-06T13:12:54;28.90;;;14.00;;
17604;SDS011;8921;50.964;6.800;2024-01-06T13:15:23;29.97;;;14.03;;
17604;SDS011;8921;50.964;6.800;2024-01-06T13:17:51;31.20;;;15.43;;
17604;SDS011;8921;50.964;6.800;2024-01-06T13:20:19;32.43;;;14.57;;
17604;SDS011;8921;50.964;6.800;2024-01-06T13:22:48;27.70;;;14.10;;
17604;SDS011;8921;50.964;6.800;2024-01-06T13:25:16;27.13;;;13.47;;
17604;SDS011;8921;50.964;6.800;2024-01-06T13:27:44;30.73;;;13.63;;
17604;SDS011;8921;50.964;6.800;2024-01-06T13:30:13;25.03;;;13.47;;
17604;SDS011;8921;50.964;6.800;2024-01-06T13:32:41;26.50;;;14.17;;
17604;SDS011;8921;50.964;6.800;2024-01-06T13:35:09;27.07;;;13.73;;
17604;SDS011;8921;50.964;6.800;2024-01-06T13:37:38;28.80;;;13.67;;
17604;SDS011;8921;50.964;6.800;2024-01-06T13:40:06;30.23;;;14.30;;
17604;SDS011;8921;50.964;6.800;2024-01-06T13:42:35;33.70;;;16.00;;
17604;SDS011;8921;50.964;6.800;2024-01-06T13:45:03;31.37;;;15.00;;
17604;SDS011;8921;50.964;6.800;2024-01-06T13:47:31;30.60;;;14.10;;
17604;SDS011;8921;50.964;6.800;2024-01-06T13:50:00;32.90;;;17.67;;
17604;SDS011;8921;50.964;6.800;2024-01-06T13:52:28;28.83;;;15.03;;
17604;SDS011;8921;50.964;6.800;2024-01-06T13:54:56;28.03;;;14.33;;
17604;SDS011;8921;50.964;6.800;2024-01-06T13:57:25;32.60;;;16.00;;
17604;SDS011;8921;50.964;6.800;2024-01-06T13:59:53;29.00;;;14.83;;
17604;SDS011;8921;50.964;6.800;2024-01-06T14:02:21;28.80;;;16.20;;
17604;SDS011;8921;50.964;6.800;2024-01-06T14:04:50;28.73;;;14.50;;
17604;SDS011;8921;50.964;6.800;2024-01-06T14:07:18;28.17;;;14.80;;
17604;SDS011;8921;50.964;6.800;2024-01-06T14:09:46;29.13;;;15.17;;
17604;SDS011;8921;50.964;6.800;2024-01-06T14:12:14;32.53;;;14.87;;
17604;SDS011;8921;50.964;6.800;2024-01-06T14:14:43;32.53;;;16.33;;
17604;SDS011;8921;50.964;6.800;2024-01-06T14:17:11;28.73;;;14.20;;
17604;SDS011;8921;50.964;6.800;2024-01-06T14:19:39;28.03;;;15.70;;
17604;SDS011;8921;50.964;6.800;2024-01-06T14:22:08;30.80;;;15.83;;
17604;SDS011;8921;50.964;6.800;2024-01-06T14:24:36;32.53;;;15.73;;
17604;SDS011;8921;50.964;6.800;2024-01-06T14:27:04;28.90;;;14.53;;
17604;SDS011;8921;50.964;6.800;2024-01-06T14:29:33;33.00;;;16.60;;
17604;SDS011;8921;50.964;6.800;2024-01-06T14:32:01;32.80;;;16.70;;
17604;SDS011;8921;50.964;6.800;2024-01-06T14:34:29;31.33;;;17.37;;
17604;SDS011;8921;50.964;6.800;2024-01-06T14:36:58;38.87;;;17.07;;
17604;SDS011;8921;50.964;6.800;2024-01-06T14:39:26;30.80;;;16.83;;
17604;SDS011;8921;50.964;6.800;2024-01-06T14:41:54;32.30;;;15.53;;
17604;SDS011;8921;50.964;6.800;2024-01-06T14:44:23;34.53;;;16.40;;
17604;SDS011;8921;50.964;6.800;2024-01-06T14:46:51;43.57;;;22.20;;
17604;SDS011;8921;50.964;6.800;2024-01-06T14:49:19;41.93;;;21.90;;